createdAt,value
2023-09-27T09:49:07.594Z,1477.50
2023-09-27T09:50:25.198Z,1455.00
2023-09-27T09:51:59.796Z,1474.17
2023-09-27T09:55:35.636Z,1340.83
2023-09-27T10:00:36.815Z,1342.50
2023-09-27T11:42:10.755Z,182.50
2023-09-27T11:47:29.020Z,19315.83
2023-09-27T11:52:47.152Z,13835.83
2023-09-27T11:58:05.385Z,12758.33
2023-09-27T12:03:28.680Z,26482.50
2023-09-27T12:08:52.141Z,32601.67
2023-09-27T12:14:15.052Z,27462.50
2023-09-27T12:19:36.222Z,23276.67
2023-09-27T12:24:54.436Z,12240.00
2023-09-27T12:30:12.688Z,13588.33
2023-09-27T12:35:30.900Z,13360.83
2023-09-27T12:40:54.094Z,13780.00
2023-09-27T12:46:17.376Z,12719.17
2023-09-27T12:51:49.323Z,12260.83
2023-09-27T12:56:58.750Z,12030.83
2023-09-27T13:02:17.026Z,12478.33
2023-09-27T13:07:35.219Z,13896.67
2023-09-27T13:12:53.393Z,12428.33
2023-09-27T13:18:16.800Z,10808.33
2023-09-27T13:23:39.915Z,10228.33
2023-09-27T13:28:58.056Z,9739.17
2023-09-27T13:34:16.542Z,15688.33
2023-09-27T13:39:34.492Z,16320.00
2023-09-27T13:44:52.842Z,31692.50
2023-09-27T13:50:11.020Z,33829.16
2023-09-27T13:55:34.263Z,26825.83
2023-09-27T14:00:57.458Z,24853.33
2023-09-27T14:06:20.771Z,26516.67
2023-09-27T14:11:38.887Z,16090.83
2023-09-27T14:16:57.097Z,23096.67
2023-09-27T14:22:15.312Z,22757.50
2023-09-27T14:27:33.513Z,19086.67
2023-09-27T14:38:20.002Z,6281.67
2023-09-27T14:43:38.227Z,5156.67
2023-09-27T14:48:56.399Z,7360.83
2023-09-27T14:54:14.699Z,9356.67
2023-09-27T14:59:32.837Z,9967.50
2023-09-27T15:04:56.222Z,10040.83
2023-09-27T15:10:19.311Z,10625.83
2023-09-27T15:15:42.513Z,8155.00
2023-09-27T15:21:00.697Z,6344.17
2023-09-27T15:26:18.991Z,5541.67
2023-09-27T15:31:37.210Z,5905.00
2023-09-27T15:36:55.346Z,6995.00
2023-09-27T15:42:18.610Z,6654.17
2023-09-27T15:47:41.895Z,5960.00
2023-09-27T15:53:05.015Z,5385.83
2023-09-27T15:58:23.309Z,3866.67
2023-09-27T16:03:41.511Z,3075.00
2023-09-27T16:08:59.651Z,2895.00
2023-09-27T16:14:17.901Z,3104.17
2023-09-27T16:19:41.088Z,2903.33
2023-09-27T16:25:04.305Z,2401.67
2023-09-27T16:30:27.535Z,2295.00
2023-09-27T16:35:45.794Z,2050.00
2023-09-27T16:41:03.946Z,1595.83
2023-09-27T16:46:22.273Z,1218.33
2023-09-27T16:51:40.364Z,976.67
2023-09-27T16:57:03.574Z,840.00
2023-09-27T17:02:26.868Z,788.33
2023-09-27T17:07:45.016Z,595.00
2023-09-27T17:13:06.235Z,315.00
2023-09-27T17:18:24.503Z,211.67
2023-09-27T17:23:42.639Z,145.83
2023-09-27T17:29:00.886Z,87.50
2023-09-27T17:34:24.151Z,41.67
2023-09-27T17:39:47.285Z,17.50
2023-09-27T17:45:05.486Z,6.67
2023-09-27T17:50:23.733Z,1.67
2023-09-27T17:55:42.007Z,0.00
2023-09-27T18:01:00.145Z,0.00
2023-09-27T18:06:23.411Z,0.00
2023-09-27T18:11:46.577Z,0.00
2023-09-27T18:17:09.822Z,0.00
2023-09-27T18:22:28.059Z,0.00
2023-09-27T18:27:47.231Z,0.00
2023-09-27T18:33:05.473Z,0.00
2023-09-27T18:38:23.690Z,0.00
2023-09-27T18:43:46.904Z,0.00
2023-09-27T18:49:10.083Z,0.00
2023-09-27T18:54:33.324Z,0.00
2023-09-27T18:59:51.522Z,0.00
2023-09-27T19:05:09.774Z,0.00
2023-09-27T19:10:28.042Z,0.00
2023-09-27T19:15:51.207Z,0.00
2023-09-27T19:21:14.381Z,0.00
2023-09-27T19:26:37.618Z,0.00
2023-09-27T19:31:55.872Z,0.00
2023-09-27T19:37:15.049Z,0.00
2023-09-27T19:42:33.284Z,0.00
2023-09-27T19:47:51.505Z,0.00
2023-09-27T19:53:14.713Z,0.00
2023-09-27T19:58:37.944Z,0.00
2023-09-27T20:04:02.190Z,0.00
2023-09-27T20:09:20.328Z,0.00
2023-09-27T20:14:38.562Z,0.00
2023-09-27T20:19:56.774Z,0.00
2023-09-27T20:25:19.968Z,0.00
2023-09-27T20:30:44.251Z,0.00
2023-09-27T20:36:07.410Z,0.00
2023-09-27T20:41:25.617Z,0.00
2023-09-27T20:46:43.916Z,0.00
2023-09-27T20:52:02.032Z,0.00
2023-09-27T20:57:20.242Z,0.00
2023-09-27T21:02:43.534Z,0.00
2023-09-27T21:08:06.732Z,0.00
2023-09-27T21:13:24.889Z,0.00
2023-09-27T21:18:43.160Z,0.00
2023-09-27T21:24:01.354Z,0.00
2023-09-27T21:29:19.578Z,0.00
2023-09-27T21:34:37.861Z,0.00
2023-09-27T21:40:01.002Z,0.00
2023-09-27T21:45:24.223Z,0.00
2023-09-27T21:50:47.473Z,0.00
2023-09-27T21:56:05.664Z,0.00
2023-09-27T22:01:23.904Z,0.00
2023-09-27T22:06:42.115Z,0.00
2023-09-27T22:12:00.292Z,0.00
2023-09-27T22:17:24.998Z,0.00
2023-09-27T22:22:48.313Z,0.00
2023-09-27T22:28:06.417Z,0.00
2023-09-27T22:33:24.631Z,0.00
2023-09-27T22:38:42.873Z,0.00
2023-09-27T22:44:01.238Z,0.00
2023-09-27T22:49:19.413Z,0.00
2023-09-27T22:54:42.651Z,0.00
2023-09-27T23:00:05.842Z,0.00
2023-09-27T23:05:24.061Z,0.00
2023-09-27T23:10:42.317Z,0.00
2023-09-27T23:16:00.513Z,0.00
2023-09-27T23:21:18.699Z,0.00
2023-09-27T23:26:36.945Z,0.00
2023-09-27T23:32:00.221Z,0.00
2023-09-27T23:37:23.365Z,0.00
2023-09-27T23:42:46.592Z,0.00
2023-09-27T23:48:04.829Z,0.00
2023-09-27T23:53:22.998Z,0.00
2023-09-27T23:58:41.262Z,0.00
